sensor_id;sensor_type;location;lat;lon;timestamp;pressure;altitude;pressure_sealevel;temperature;humidity
62712;BME280;48772;55.586;37.730;2022-12-18T00:01:50;98780.44;;;-3.86;100.00
62712;BME280;48772;55.586;37.730;2022-12-18T00:04:25;98766.75;;;-3.91;100.00
62712;BME280;48772;55.586;37.730;2022-12-18T00:06:52;98779.38;;;-3.80;100.00
62712;BME280;48772;55.586;37.730;2022-12-18T00:09:18;98743.84;;;-4.04;100.00
62712;BME280;48772;55.586;37.730;2022-12-18T00:11:44;98757.31;;;-3.93;100.00
62712;BME280;48772;55.586;37.730;2022-12-18T00:14:11;98697.78;;;-4.25;100.00
62712;BME280;48772;55.586;37.730;2022-12-18T00:16:38;98766.66;;;-3.88;100.00
62712;BME280;48772;55.586;37.730;2022-12-18T00:19:06;98746.91;;;-3.93;100.00
62712;BME280;48772;55.586;37.730;2022-12-18T00:21:33;98758.91;;;-3.89;100.00
62712;BME280;48772;55.586;37.730;2022-12-18T00:24:00;98750.22;;;-3.90;100.00
62712;BME280;48772;55.586;37.730;2022-12-18T00:26:52;98748.66;;;-3.94;100.00
62712;BME280;48772;55.586;37.730;2022-12-18T00:29:20;98750.16;;;-3.88;100.00
62712;BME280;48772;55.586;37.730;2022-12-18T00:31:46;98725.16;;;-3.92;100.00
62712;BME280;48772;55.586;37.730;2022-12-18T00:34:13;98737.25;;;-3.91;100.00
62712;BME280;48772;55.586;37.730;2022-12-18T00:36:39;98712.59;;;-4.04;100.00
62712;BME280;48772;55.586;37.730;2022-12-18T00:39:06;98710.72;;;-4.01;100.00
62712;BME280;48772;55.586;37.730;2022-12-18T00:41:32;98718.44;;;-3.98;100.00
62712;BME280;48772;55.586;37.730;2022-12-18T00:44:17;98696.13;;;-4.05;100.00
62712;BME280;48772;55.586;37.730;2022-12-18T00:46:45;98698.38;;;-3.96;100.00
62712;BME280;48772;55.586;37.730;2022-12-18T00:49:15;98673.84;;;-4.12;100.00
62712;BME280;48772;55.586;37.730;2022-12-18T00:51:42;98656.66;;;-4.16;100.00
62712;BME280;48772;55.586;37.730;2022-12-18T00:54:12;98697.44;;;-3.93;100.00
62712;BME280;48772;55.586;37.730;2022-12-18T00:56:38;98663.22;;;-4.06;100.00
62712;BME280;48772;55.586;37.730;2022-12-18T00:59:05;98661.78;;;-4.14;100.00
62712;BME280;48772;55.586;37.730;2022-12-18T01:04:19;98669.31;;;-4.07;100.00
62712;BME280;48772;55.586;37.730;2022-12-18T01:06:45;98665.75;;;-4.04;100.00
62712;BME280;48772;55.586;37.730;2022-12-18T01:09:12;98640.16;;;-4.16;100.00
62712;BME280;48772;55.586;37.730;2022-12-18T01:11:38;98667.44;;;-4.03;100.00
62712;BME280;48772;55.586;37.730;2022-12-18T01:14:04;98664.78;;;-4.02;100.00
62712;BME280;48772;55.586;37.730;2022-12-18T01:16:30;98657.16;;;-4.06;100.00
62712;BME280;48772;55.586;37.730;2022-12-18T01:18:56;98621.53;;;-4.27;100.00
62712;BME280;48772;55.586;37.730;2022-12-18T01:21:22;98640.38;;;-4.21;100.00
62712;BME280;48772;55.586;37.730;2022-12-18T01:23:54;98658.78;;;-4.04;100.00
62712;BME280;48772;55.586;37.730;2022-12-18T01:26:23;98620.56;;;-4.25;100.00
62712;BME280;48772;55.586;37.730;2022-12-18T01:28:54;98627.22;;;-4.18;100.00
62712;BME280;48772;55.586;37.730;2022-12-18T01:31:25;98588.13;;;-4.38;100.00
62712;BME280;48772;55.586;37.730;2022-12-18T01:33:51;98647.53;;;-4.04;100.00
62712;BME280;48772;55.586;37.730;2022-12-18T01:36:29;98597.44;;;-4.32;100.00
62712;BME280;48772;55.586;37.730;2022-12-18T01:38:56;98650.97;;;-4.04;100.00
62712;BME280;48772;55.586;37.730;2022-12-18T01:41:26;98625.53;;;-4.19;100.00
62712;BME280;48772;55.586;37.730;2022-12-18T01:44:55;98641.47;;;-4.05;100.00
62712;BME280;48772;55.586;37.730;2022-12-18T01:47:29;98603.50;;;-4.32;100.00
62712;BME280;48772;55.586;37.730;2022-12-18T01:49:57;98585.94;;;-4.48;100.00
62712;BME280;48772;55.586;37.730;2022-12-18T01:52:31;98634.19;;;-4.18;100.00
62712;BME280;48772;55.586;37.730;2022-12-18T01:54:59;98587.63;;;-4.47;100.00
62712;BME280;48772;55.586;37.730;2022-12-18T01:57:27;98617.16;;;-4.27;100.00
62712;BME280;48772;55.586;37.730;2022-12-18T02:00:03;98654.72;;;-4.11;100.00
62712;BME280;48772;55.586;37.730;2022-12-18T02:02:40;98645.31;;;-4.15;100.00
62712;BME280;48772;55.586;37.730;2022-12-18T02:05:07;98616.31;;;-4.27;100.00
62712;BME280;48772;55.586;37.730;2022-12-18T02:10:52;98633.38;;;-4.20;100.00
62712;BME280;48772;55.586;37.730;2022-12-18T02:13:32;98613.59;;;-4.24;100.00
62712;BME280;48772;55.586;37.730;2022-12-18T02:27:51;98620.28;;;-4.17;100.00
62712;BME280;48772;55.586;37.730;2022-12-18T02:30:20;98634.53;;;-4.04;100.00
62712;BME280;48772;55.586;37.730;2022-12-18T02:32:52;98598.75;;;-4.21;100.00
62712;BME280;48772;55.586;37.730;2022-12-18T02:35:30;98627.75;;;-4.08;100.00
62712;BME280;48772;55.586;37.730;2022-12-18T02:37:58;98602.47;;;-4.28;100.00
62712;BME280;48772;55.586;37.730;2022-12-18T02:40:28;98632.19;;;-4.12;100.00
62712;BME280;48772;55.586;37.730;2022-12-18T02:42:55;98608.22;;;-4.20;100.00
62712;BME280;48772;55.586;37.730;2022-12-18T02:45:22;98631.47;;;-4.15;100.00
62712;BME280;48772;55.586;37.730;2022-12-18T02:47:49;98610.38;;;-4.31;100.00
62712;BME280;48772;55.586;37.730;2022-12-18T02:50:35;98614.50;;;-4.25;100.00
62712;BME280;48772;55.586;37.730;2022-12-18T02:53:20;98613.66;;;-4.26;100.00
62712;BME280;48772;55.586;37.730;2022-12-18T02:58:57;98622.88;;;-4.17;100.00
62712;BME280;48772;55.586;37.730;2022-12-18T03:01:46;98617.88;;;-4.23;100.00
62712;BME280;48772;55.586;37.730;2022-12-18T03:04:38;98637.63;;;-4.18;100.00
62712;BME280;48772;55.586;37.730;2022-12-18T03:07:09;98608.56;;;-4.29;100.00
62712;BME280;48772;55.586;37.730;2022-12-18T03:09:43;98611.97;;;-4.27;100.00
62712;BME280;48772;55.586;37.730;2022-12-18T03:15:10;98620.91;;;-4.34;100.00
62712;BME280;48772;55.586;37.730;2022-12-18T03:17:40;98633.69;;;-4.28;100.00
62712;BME280;48772;55.586;37.730;2022-12-18T03:20:13;98627.75;;;-4.31;100.00
62712;BME280;48772;55.586;37.730;2022-12-18T03:22:41;98627.81;;;-4.33;100.00
62712;BME280;48772;55.586;37.730;2022-12-18T03:25:11;98625.44;;;-4.39;100.00
62712;BME280;48772;55.586;37.730;2022-12-18T03:27:44;98632.88;;;-4.30;100.00
62712;BME280;48772;55.586;37.730;2022-12-18T03:30:14;98614.13;;;-4.38;100.00
62712;BME280;48772;55.586;37.730;2022-12-18T03:36:03;98619.22;;;-4.35;100.00
62712;BME280;48772;55.586;37.730;2022-12-18T03:38:29;98635.59;;;-4.33;100.00
62712;BME280;48772;55.586;37.730;2022-12-18T03:50:27;98643.41;;;-4.33;100.00
62712;BME280;48772;55.586;37.730;2022-12-18T03:53:18;98635.97;;;-4.42;100.00
62712;BME280;48772;55.586;37.730;2022-12-18T03:55:52;98643.66;;;-4.39;100.00
62712;BME280;48772;55.586;37.730;2022-12-18T03:58:22;98639.16;;;-4.35;100.00
62712;BME280;48772;55.586;37.730;2022-12-18T04:01:02;98652.69;;;-4.26;100.00
62712;BME280;48772;55.586;37.730;2022-12-18T04:03:34;98653.59;;;-4.27;100.00
62712;BME280;48772;55.586;37.730;2022-12-18T04:06:02;98644.88;;;-4.26;100.00
62712;BME280;48772;55.586;37.730;2022-12-18T04:08:29;98640.03;;;-4.35;100.00
62712;BME280;48772;55.586;37.730;2022-12-18T04:11:03;98642.31;;;-4.27;100.00
62712;BME280;48772;55.586;37.730;2022-12-18T04:13:32;98643.47;;;-4.34;100.00
62712;BME280;48772;55.586;37.730;2022-12-18T04:16:01;98652.59;;;-4.46;100.00
62712;BME280;48772;55.586;37.730;2022-12-18T04:18:27;98683.56;;;-4.40;100.00
62712;BME280;48772;55.586;37.730;2022-12-18T04:20:53;98674.31;;;-4.47;100.00
62712;BME280;48772;55.586;37.730;2022-12-18T04:23:19;98674.88;;;-4.39;100.00
62712;BME280;48772;55.586;37.730;2022-12-18T04:25:47;98670.69;;;-4.43;100.00
62712;BME280;48772;55.586;37.730;2022-12-18T04:28:19;98688.53;;;-4.34;100.00
62712;BME280;48772;55.586;37.730;2022-12-18T04:30:45;98699.81;;;-4.33;100.00
62712;BME280;48772;55.586;37.730;2022-12-18T04:33:13;98710.94;;;-4.30;100.00
62712;BME280;48772;55.586;37.730;2022-12-18T04:35:42;98705.16;;;-4.38;100.00
62712;BME280;48772;55.586;37.730;2022-12-18T04:38:09;98703.38;;;-4.36;100.00
62712;BME280;48772;55.586;37.730;2022-12-18T04:40:36;98712.94;;;-4.36;100.00
62712;BME280;48772;55.586;37.730;2022-12-18T04:43:06;98710.28;;;-4.35;100.00
62712;BME280;48772;55.586;37.730;2022-12-18T04:45:32;98715.47;;;-4.35;100.00
62712;BME280;48772;55.586;37.730;2022-12-18T04:47:59;98705.78;;;-4.54;100.00
62712;BME280;48772;55.586;37.730;2022-12-18T04:50:25;98737.50;;;-4.45;100.00
62712;BME280;48772;55.586;37.730;2022-12-18T04:52:51;98746.78;;;-4.38;100.00
62712;BME280;48772;55.586;37.730;2022-12-18T04:55:17;98746.66;;;-4.33;100.00
62712;BME280;48772;55.586;37.730;2022-12-18T04:57:43;98740.06;;;-4.43;100.00
62712;BME280;48772;55.586;37.730;2022-12-18T05:00:09;98752.16;;;-4.42;100.00
62712;BME280;48772;55.586;37.730;2022-12-18T05:02:35;98740.91;;;-4.43;100.00
62712;BME280;48772;55.586;37.730;2022-12-18T05:05:01;98730.00;;;-4.52;100.00
62712;BME280;48772;55.586;37.730;2022-12-18T05:07:26;98753.16;;;-4.46;100.00
62712;BME280;48772;55.586;37.730;2022-12-18T05:09:52;98757.59;;;-4.48;100.00
62712;BME280;48772;55.586;37.730;2022-12-18T05:12:18;98740.50;;;-4.55;100.00
62712;BME280;48772;55.586;37.730;2022-12-18T05:14:43;98759.00;;;-4.40;100.00
62712;BME280;48772;55.586;37.730;2022-12-18T05:17:09;98744.34;;;-4.42;100.00
62712;BME280;48772;55.586;37.730;2022-12-18T05:19:35;98748.66;;;-4.41;100.00
62712;BME280;48772;55.586;37.730;2022-12-18T05:22:02;98712.13;;;-4.63;100.00
62712;BME280;48772;55.586;37.730;2022-12-18T05:24:28;98753.31;;;-4.51;100.00
62712;BME280;48772;55.586;37.730;2022-12-18T05:26:54;98754.94;;;-4.47;100.00
62712;BME280;48772;55.586;37.730;2022-12-18T05:29:20;98777.34;;;-4.43;100.00
62712;BME280;48772;55.586;37.730;2022-12-18T05:31:46;98780.94;;;-4.47;100.00
62712;BME280;48772;55.586;37.730;2022-12-18T05:34:11;98765.63;;;-4.56;100.00
62712;BME280;48772;55.586;37.730;2022-12-18T05:36:37;98801.63;;;-4.44;100.00
62712;BME280;48772;55.586;37.730;2022-12-18T05:39:03;98797.44;;;-4.48;100.00
62712;BME280;48772;55.586;37.730;2022-12-18T05:41:32;98805.94;;;-4.43;100.00
62712;BME280;48772;55.586;37.730;2022-12-18T05:43:58;98800.13;;;-4.51;100.00
62712;BME280;48772;55.586;37.730;2022-12-18T05:46:24;98810.53;;;-4.51;100.00
62712;BME280;48772;55.586;37.730;2022-12-18T05:48:50;98810.25;;;-4.42;100.00
62712;BME280;48772;55.586;37.730;2022-12-18T05:51:20;98790.59;;;-4.50;100.00
62712;BME280;48772;55.586;37.730;2022-12-18T05:53:49;98815.53;;;-4.45;100.00
62712;BME280;48772;55.586;37.730;2022-12-18T05:56:17;98821.66;;;-4.46;100.00
62712;BME280;48772;55.586;37.730;2022-12-18T05:58:44;98808.13;;;-4.55;100.00
62712;BME280;48772;55.586;37.730;2022-12-18T06:01:14;98819.34;;;-4.55;100.00
62712;BME280;48772;55.586;37.730;2022-12-18T06:03:40;98819.63;;;-4.62;100.00
62712;BME280;48772;55.586;37.730;2022-12-18T06:06:19;98823.84;;;-4.60;100.00
62712;BME280;48772;55.586;37.730;2022-12-18T06:08:46;98818.06;;;-4.68;100.00
62712;BME280;48772;55.586;37.730;2022-12-18T06:11:13;98836.78;;;-4.57;100.00
62712;BME280;48772;55.586;37.730;2022-12-18T06:13:38;98854.56;;;-4.45;100.00
62712;BME280;48772;55.586;37.730;2022-12-18T06:16:05;98843.41;;;-4.48;100.00
62712;BME280;48772;55.586;37.730;2022-12-18T06:18:31;98859.53;;;-4.37;100.00
62712;BME280;48772;55.586;37.730;2022-12-18T06:20:59;98856.25;;;-4.44;100.00
62712;BME280;48772;55.586;37.730;2022-12-18T06:23:25;98795.66;;;-4.72;100.00
62712;BME280;48772;55.586;37.730;2022-12-18T06:25:51;98848.44;;;-4.44;100.00
62712;BME280;48772;55.586;37.730;2022-12-18T06:28:18;98866.59;;;-4.42;100.00
62712;BME280;48772;55.586;37.730;2022-12-18T06:30:45;98833.41;;;-4.60;100.00
62712;BME280;48772;55.586;37.730;2022-12-18T06:33:11;98864.19;;;-4.47;100.00
62712;BME280;48772;55.586;37.730;2022-12-18T06:35:37;98854.69;;;-4.49;100.00
62712;BME280;48772;55.586;37.730;2022-12-18T06:38:03;98879.56;;;-4.41;100.00
62712;BME280;48772;55.586;37.730;2022-12-18T06:40:29;98883.72;;;-4.35;100.00
62712;BME280;48772;55.586;37.730;2022-12-18T06:42:55;98901.69;;;-4.28;100.00
62712;BME280;48772;55.586;37.730;2022-12-18T06:45:21;98903.69;;;-4.36;100.00
62712;BME280;48772;55.586;37.730;2022-12-18T06:47:47;98919.94;;;-4.29;100.00
62712;BME280;48772;55.586;37.730;2022-12-18T06:50:13;98922.69;;;-4.34;100.00
62712;BME280;48772;55.586;37.730;2022-12-18T06:52:39;98927.50;;;-4.22;100.00
62712;BME280;48772;55.586;37.730;2022-12-18T06:55:10;98937.13;;;-4.24;100.00
62712;BME280;48772;55.586;37.730;2022-12-18T06:57:37;98937.22;;;-4.27;100.00
62712;BME280;48772;55.586;37.730;2022-12-18T07:00:05;98947.06;;;-4.10;100.00
62712;BME280;48772;55.586;37.730;2022-12-18T07:02:32;98937.66;;;-4.14;100.00
62712;BME280;48772;55.586;37.730;2022-12-18T07:04:58;98909.59;;;-4.31;100.00
62712;BME280;48772;55.586;37.730;2022-12-18T07:07:24;98922.22;;;-4.20;100.00
62712;BME280;48772;55.586;37.730;2022-12-18T07:09:50;98939.56;;;-4.19;100.00
62712;BME280;48772;55.586;37.730;2022-12-18T07:12:16;98927.63;;;-4.25;100.00
62712;BME280;48772;55.586;37.730;2022-12-18T07:14:42;98943.72;;;-4.14;100.00
62712;BME280;48772;55.586;37.730;2022-12-18T07:17:08;98948.97;;;-4.15;100.00
62712;BME280;48772;55.586;37.730;2022-12-18T07:19:34;98960.03;;;-4.09;100.00
62712;BME280;48772;55.586;37.730;2022-12-18T07:22:00;98973.72;;;-4.04;100.00
62712;BME280;48772;55.586;37.730;2022-12-18T07:24:26;98973.72;;;-4.04;100.00
62712;BME280;48772;55.586;37.730;2022-12-18T07:26:52;98986.59;;;-3.99;100.00
62712;BME280;48772;55.586;37.730;2022-12-18T07:29:18;98977.94;;;-4.00;100.00
62712;BME280;48772;55.586;37.730;2022-12-18T07:31:44;98979.34;;;-3.90;100.00
62712;BME280;48772;55.586;37.730;2022-12-18T07:34:11;98972.59;;;-3.95;100.00
62712;BME280;48772;55.586;37.730;2022-12-18T07:36:37;98983.75;;;-3.92;100.00
62712;BME280;48772;55.586;37.730;2022-12-18T07:39:03;98980.06;;;-3.85;100.00
62712;BME280;48772;55.586;37.730;2022-12-18T07:41:28;98995.69;;;-3.85;100.00
62712;BME280;48772;55.586;37.730;2022-12-18T07:43:54;98996.81;;;-3.67;100.00
62712;BME280;48772;55.586;37.730;2022-12-18T07:46:20;99001.16;;;-3.68;100.00
62712;BME280;48772;55.586;37.730;2022-12-18T07:48:46;99002.94;;;-3.68;100.00
62712;BME280;48772;55.586;37.730;2022-12-18T07:51:13;98970.56;;;-3.87;100.00
62712;BME280;48772;55.586;37.730;2022-12-18T07:53:40;98993.66;;;-3.77;100.00
62712;BME280;48772;55.586;37.730;2022-12-18T07:56:09;98981.75;;;-3.84;100.00
62712;BME280;48772;55.586;37.730;2022-12-18T07:58:36;99000.72;;;-3.80;100.00
62712;BME280;48772;55.586;37.730;2022-12-18T08:01:09;99008.13;;;-3.68;100.00
62712;BME280;48772;55.586;37.730;2022-12-18T08:03:38;98989.25;;;-3.75;100.00
62712;BME280;48772;55.586;37.730;2022-12-18T08:06:06;99017.28;;;-3.57;100.00
62712;BME280;48772;55.586;37.730;2022-12-18T08:08:33;99018.56;;;-3.68;100.00
62712;BME280;48772;55.586;37.730;2022-12-18T08:11:00;99034.91;;;-3.65;100.00
62712;BME280;48772;55.586;37.730;2022-12-18T08:13:26;99026.41;;;-3.70;100.00
62712;BME280;48772;55.586;37.730;2022-12-18T08:16:00;99041.00;;;-3.64;100.00
62712;BME280;48772;55.586;37.730;2022-12-18T08:18:27;99033.41;;;-3.72;100.00
62712;BME280;48772;55.586;37.730;2022-12-18T08:20:54;99057.06;;;-3.52;100.00
62712;BME280;48772;55.586;37.730;2022-12-18T08:23:20;99052.16;;;-3.61;100.00
62712;BME280;48772;55.586;37.730;2022-12-18T08:25:45;99061.59;;;-3.58;100.00
62712;BME280;48772;55.586;37.730;2022-12-18T08:28:11;99069.41;;;-3.58;100.00
62712;BME280;48772;55.586;37.730;2022-12-18T08:30:43;99079.88;;;-3.60;100.00
62712;BME280;48772;55.586;37.730;2022-12-18T08:33:08;99073.88;;;-3.62;100.00
62712;BME280;48772;55.586;37.730;2022-12-18T08:35:35;99067.31;;;-3.73;100.00
62712;BME280;48772;55.586;37.730;2022-12-18T08:38:02;99022.19;;;-4.00;100.00
62712;BME280;48772;55.586;37.730;2022-12-18T08:40:28;99058.53;;;-3.71;100.00
62712;BME280;48772;55.586;37.730;2022-12-18T08:42:54;99085.16;;;-3.61;100.00
62712;BME280;48772;55.586;37.730;2022-12-18T08:45:38;99068.09;;;-3.70;100.00
62712;BME280;48772;55.586;37.730;2022-12-18T08:48:04;99081.25;;;-3.74;100.00
62712;BME280;48772;55.586;37.730;2022-12-18T08:50:30;99057.03;;;-3.78;100.00
62712;BME280;48772;55.586;37.730;2022-12-18T08:52:56;99089.63;;;-3.65;100.00
62712;BME280;48772;55.586;37.730;2022-12-18T08:55:22;99089.31;;;-3.56;100.00
62712;BME280;48772;55.586;37.730;2022-12-18T08:57:48;99081.63;;;-3.59;100.00
62712;BME280;48772;55.586;37.730;2022-12-18T09:00:15;99071.19;;;-3.59;100.00
62712;BME280;48772;55.586;37.730;2022-12-18T09:02:41;99064.16;;;-3.57;100.00
62712;BME280;48772;55.586;37.730;2022-12-18T09:05:09;99095.88;;;-3.44;100.00
62712;BME280;48772;55.586;37.730;2022-12-18T09:07:36;99037.84;;;-3.74;100.00
62712;BME280;48772;55.586;37.730;2022-12-18T09:10:27;99123.78;;;-3.21;100.00
62712;BME280;48772;55.586;37.730;2022-12-18T09:12:54;99086.31;;;-3.43;100.00
62712;BME280;48772;55.586;37.730;2022-12-18T09:15:24;99102.44;;;-3.32;100.00
62712;BME280;48772;55.586;37.730;2022-12-18T09:17:53;99116.16;;;-3.27;100.00
62712;BME280;48772;55.586;37.730;2022-12-18T09:20:21;99135.81;;;-3.17;100.00
62712;BME280;48772;55.586;37.730;2022-12-18T09:22:48;99109.44;;;-3.34;100.00
62712;BME280;48772;55.586;37.730;2022-12-18T09:25:16;99107.78;;;-3.37;100.00
62712;BME280;48772;55.586;37.730;2022-12-18T09:27:47;99133.44;;;-3.25;100.00
62712;BME280;48772;55.586;37.730;2022-12-18T09:33:00;99084.41;;;-3.65;100.00
62712;BME280;48772;55.586;37.730;2022-12-18T09:35:35;99119.59;;;-3.52;100.00
62712;BME280;48772;55.586;37.730;2022-12-18T09:38:04;99105.16;;;-3.62;100.00
62712;BME280;48772;55.586;37.730;2022-12-18T09:40:36;99131.50;;;-3.45;100.00
62712;BME280;48772;55.586;37.730;2022-12-18T09:43:06;99128.56;;;-3.34;100.00
62712;BME280;48772;55.586;37.730;2022-12-18T09:45:43;99131.09;;;-3.32;100.00
62712;BME280;48772;55.586;37.730;2022-12-18T09:48:18;99163.88;;;-3.25;100.00
62712;BME280;48772;55.586;37.730;2022-12-18T09:50:46;99160.31;;;-3.23;100.00
62712;BME280;48772;55.586;37.730;2022-12-18T09:53:19;99123.66;;;-3.45;100.00
62712;BME280;48772;55.586;37.730;2022-12-18T09:55:48;99161.34;;;-3.27;100.00
62712;BME280;48772;55.586;37.730;2022-12-18T10:00:54;99175.75;;;-3.17;100.00
62712;BME280;48772;55.586;37.730;2022-12-18T10:03:20;99152.50;;;-3.23;100.00
62712;BME280;48772;55.586;37.730;2022-12-18T10:06:13;99177.47;;;-3.16;100.00
62712;BME280;48772;55.586;37.730;2022-12-18T10:08:54;99187.94;;;-3.17;100.00
62712;BME280;48772;55.586;37.730;2022-12-18T10:16:51;99181.97;;;-3.21;100.00
62712;BME280;48772;55.586;37.730;2022-12-18T10:25:12;99180.16;;;-3.19;100.00
62712;BME280;48772;55.586;37.730;2022-12-18T10:27:41;99174.09;;;-3.19;100.00
62712;BME280;48772;55.586;37.730;2022-12-18T10:30:14;99135.97;;;-3.48;100.00
62712;BME280;48772;55.586;37.730;2022-12-18T10:32:41;99129.25;;;-3.55;100.00
62712;BME280;48772;55.586;37.730;2022-12-18T10:35:17;99186.34;;;-3.21;100.00
62712;BME280;48772;55.586;37.730;2022-12-18T10:40:55;99196.97;;;-3.27;100.00
62712;BME280;48772;55.586;37.730;2022-12-18T10:43:29;99154.34;;;-3.53;100.00
62712;BME280;48772;55.586;37.730;2022-12-18T10:46:19;99148.63;;;-3.64;100.00
62712;BME280;48772;55.586;37.730;2022-12-18T10:51:33;99155.13;;;-3.77;100.00
62712;BME280;48772;55.586;37.730;2022-12-18T10:54:01;99193.75;;;-3.63;100.00
62712;BME280;48772;55.586;37.730;2022-12-18T10:56:33;99205.94;;;-3.64;100.00
62712;BME280;48772;55.586;37.730;2022-12-18T10:59:08;99200.00;;;-3.69;100.00
62712;BME280;48772;55.586;37.730;2022-12-18T11:01:58;99247.78;;;-3.40;100.00
62712;BME280;48772;55.586;37.730;2022-12-18T11:04:31;99229.16;;;-3.56;100.00
62712;BME280;48772;55.586;37.730;2022-12-18T11:07:07;99279.06;;;-3.40;100.00
62712;BME280;48772;55.586;37.730;2022-12-18T11:09:37;99256.69;;;-3.47;100.00
62712;BME280;48772;55.586;37.730;2022-12-18T11:17:18;99236.22;;;-3.61;100.00
62712;BME280;48772;55.586;37.730;2022-12-18T11:19:44;99240.47;;;-3.57;100.00
62712;BME280;48772;55.586;37.730;2022-12-18T11:22:37;99265.28;;;-3.46;100.00
62712;BME280;48772;55.586;37.730;2022-12-18T11:25:30;99241.22;;;-3.54;100.00
62712;BME280;48772;55.586;37.730;2022-12-18T11:28:27;99235.28;;;-3.57;100.00
62712;BME280;48772;55.586;37.730;2022-12-18T11:31:21;99271.16;;;-3.39;100.00
62712;BME280;48772;55.586;37.730;2022-12-18T11:34:05;99261.38;;;-3.59;100.00
62712;BME280;48772;55.586;37.730;2022-12-18T11:36:42;99233.34;;;-3.80;100.00
62712;BME280;48772;55.586;37.730;2022-12-18T11:39:18;99241.16;;;-3.80;100.00
62712;BME280;48772;55.586;37.730;2022-12-18T11:41:57;99266.66;;;-3.62;100.00
62712;BME280;48772;55.586;37.730;2022-12-18T11:50:33;99249.41;;;-3.95;100.00
62712;BME280;48772;55.586;37.730;2022-12-18T11:53:16;99243.78;;;-4.10;100.00
62712;BME280;48772;55.586;37.730;2022-12-18T11:58:46;99312.47;;;-3.84;100.00
62712;BME280;48772;55.586;37.730;2022-12-18T12:01:53;99294.72;;;-4.00;100.00
62712;BME280;48772;55.586;37.730;2022-12-18T12:10:36;99357.91;;;-3.65;100.00
62712;BME280;48772;55.586;37.730;2022-12-18T12:13:27;99368.38;;;-3.66;100.00
62712;BME280;48772;55.586;37.730;2022-12-18T12:19:05;99376.97;;;-3.63;100.00
62712;BME280;48772;55.586;37.730;2022-12-18T12:21:42;99373.66;;;-3.69;100.00
62712;BME280;48772;55.586;37.730;2022-12-18T12:27:10;99376.31;;;-3.71;100.00
62712;BME280;48772;55.586;37.730;2022-12-18T12:30:16;99385.03;;;-3.72;100.00
62712;BME280;48772;55.586;37.730;2022-12-18T12:35:42;99382.72;;;-3.82;100.00
62712;BME280;48772;55.586;37.730;2022-12-18T12:38:15;99369.31;;;-3.99;100.00
62712;BME280;48772;55.586;37.730;2022-12-18T12:40:45;99412.38;;;-3.86;100.00
62712;BME280;48772;55.586;37.730;2022-12-18T12:43:24;99413.28;;;-3.89;100.00
62712;BME280;48772;55.586;37.730;2022-12-18T12:46:06;99416.81;;;-3.91;100.00
62712;BME280;48772;55.586;37.730;2022-12-18T12:48:44;99392.13;;;-4.09;100.00
62712;BME280;48772;55.586;37.730;2022-12-18T12:51:18;99411.78;;;-3.97;100.00
62712;BME280;48772;55.586;37.730;2022-12-18T12:53:45;99425.53;;;-3.92;100.00
62712;BME280;48772;55.586;37.730;2022-12-18T12:56:15;99419.81;;;-4.06;100.00
62712;BME280;48772;55.586;37.730;2022-12-18T13:01:40;99437.97;;;-4.03;100.00
62712;BME280;48772;55.586;37.730;2022-12-18T13:04:26;99441.38;;;-4.01;100.00
62712;BME280;48772;55.586;37.730;2022-12-18T13:09:24;99452.75;;;-4.05;100.00
62712;BME280;48772;55.586;37.730;2022-12-18T13:11:53;99453.63;;;-4.05;100.00
62712;BME280;48772;55.586;37.730;2022-12-18T13:14:51;99458.78;;;-4.03;100.00
62712;BME280;48772;55.586;37.730;2022-12-18T13:19:50;99443.53;;;-4.17;100.00
62712;BME280;48772;55.586;37.730;2022-12-18T13:22:38;99490.66;;;-3.94;100.00
62712;BME280;48772;55.586;37.730;2022-12-18T13:25:34;99490.81;;;-4.00;100.00
62712;BME280;48772;55.586;37.730;2022-12-18T13:28:14;99495.94;;;-3.97;100.00
62712;BME280;48772;55.586;37.730;2022-12-18T13:30:43;99495.03;;;-3.96;100.00
62712;BME280;48772;55.586;37.730;2022-12-18T13:38:44;99515.94;;;-3.97;100.00
62712;BME280;48772;55.586;37.730;2022-12-18T13:41:23;99524.63;;;-3.98;100.00
62712;BME280;48772;55.586;37.730;2022-12-18T13:44:07;99511.81;;;-4.06;100.00
62712;BME280;48772;55.586;37.730;2022-12-18T13:46:55;99530.75;;;-4.01;100.00
62712;BME280;48772;55.586;37.730;2022-12-18T13:49:39;99491.34;;;-4.21;100.00
62712;BME280;48772;55.586;37.730;2022-12-18T13:52:22;99527.44;;;-4.06;100.00
62712;BME280;48772;55.586;37.730;2022-12-18T13:54:59;99546.97;;;-3.90;100.00
62712;BME280;48772;55.586;37.730;2022-12-18T13:57:29;99544.44;;;-3.93;100.00
62712;BME280;48772;55.586;37.730;2022-12-18T13:59:56;99555.88;;;-3.98;100.00
62712;BME280;48772;55.586;37.730;2022-12-18T14:02:27;99562.84;;;-3.99;100.00
62712;BME280;48772;55.586;37.730;2022-12-18T14:04:54;99558.59;;;-4.03;100.00
62712;BME280;48772;55.586;37.730;2022-12-18T14:07:28;99579.94;;;-3.89;100.00
62712;BME280;48772;55.586;37.730;2022-12-18T14:09:57;99556.72;;;-3.98;100.00
62712;BME280;48772;55.586;37.730;2022-12-18T14:12:28;99566.44;;;-4.04;100.00
62712;BME280;48772;55.586;37.730;2022-12-18T14:15:42;99585.38;;;-3.98;100.00
62712;BME280;48772;55.586;37.730;2022-12-18T14:20:45;99552.28;;;-4.29;100.00
62712;BME280;48772;55.586;37.730;2022-12-18T14:23:47;99602.69;;;-3.97;100.00
62712;BME280;48772;55.586;37.730;2022-12-18T14:28:51;99585.66;;;-4.10;100.00
62712;BME280;48772;55.586;37.730;2022-12-18T14:31:28;99601.94;;;-4.00;100.00
62712;BME280;48772;55.586;37.730;2022-12-18T14:33:58;99626.06;;;-3.94;100.00
62712;BME280;48772;55.586;37.730;2022-12-18T14:36:28;99618.31;;;-3.97;100.00
62712;BME280;48772;55.586;37.730;2022-12-18T14:38:57;99622.50;;;-3.90;100.00
62712;BME280;48772;55.586;37.730;2022-12-18T14:41:34;99636.22;;;-3.83;100.00
62712;BME280;48772;55.586;37.730;2022-12-18T14:44:07;99593.19;;;-3.98;100.00
62712;BME280;48772;55.586;37.730;2022-12-18T14:46:48;99613.31;;;-4.04;100.00
62712;BME280;48772;55.586;37.730;2022-12-18T14:51:54;99655.19;;;-3.77;100.00